Time;durP1;ratioP1;P1;durP2;ratioP2;P2;SDS_P1;SDS_P2;PMS_P1;PMS_P2;Temp;Humidity;BMP_temperature;BMP_pressure;BME280_temperature;BME280_humidity;BME280_pressure;Samples;Min_cycle;Max_cycle;Signal;HPM_P1;HPM_P2
2023/09/03 00:00:42;;;;;;;6.90;4.90;;;18.10;1.00;;;;;;5158691;27;20492;-44
2023/09/03 00:03:08;;;;;;;5.63;5.13;;;18.10;1.00;;;;;;5159544;27;20199;-44
2023/09/03 00:05:34;;;;;;;5.20;4.70;;;18.10;1.00;;;;;;5159494;27;20709;-45
2023/09/03 00:08:00;;;;;;;6.23;5.20;;;18.00;1.00;;;;;;5159853;27;20497;-45
2023/09/03 00:10:26;;;;;;;5.27;4.63;;;18.00;1.00;;;;;;5159259;27;20449;-45
2023/09/03 00:12:51;;;;;;;6.03;4.50;;;17.90;1.00;;;;;;5160104;27;20431;-44
2023/09/03 00:15:23;;;;;;;5.80;4.67;;;18.00;1.00;;;;;;5160886;27;20210;-44
2023/09/03 00:17:49;;;;;;;6.47;5.13;;;18.00;1.00;;;;;;5160048;27;20187;-44
2023/09/03 00:20:15;;;;;;;6.10;5.10;;;18.00;1.00;;;;;;5158982;27;20852;-45
2023/09/03 00:22:41;;;;;;;6.00;4.40;;;18.00;1.00;;;;;;5158784;27;20246;-45
2023/09/03 00:25:08;;;;;;;7.90;4.27;;;17.90;1.00;;;;;;5159987;27;20579;-44
2023/09/03 00:27:33;;;;;;;5.77;4.70;;;17.90;1.00;;;;;;5159611;27;20435;-44
2023/09/03 00:30:00;;;;;;;5.60;4.70;;;17.90;1.00;;;;;;5159644;27;20491;-45
2023/09/03 00:32:26;;;;;;;5.07;4.57;;;17.90;1.00;;;;;;5159672;27;20206;-45
2023/09/03 00:34:51;;;;;;;5.60;4.43;;;17.80;1.00;;;;;;5158750;27;20410;-45
2023/09/03 00:37:17;;;;;;;7.00;4.50;;;17.80;1.00;;;;;;5159070;27;20314;-45
2023/09/03 00:39:43;;;;;;;4.90;4.40;;;17.70;1.00;;;;;;5159516;27;20245;-44
2023/09/03 00:42:09;;;;;;;5.47;4.27;;;17.90;1.00;;;;;;5157849;27;20185;-44
2023/09/03 00:44:34;;;;;;;4.83;4.33;;;17.70;1.00;;;;;;5157680;27;20282;-45
2023/09/03 00:47:00;;;;;;;5.87;4.70;;;17.70;1.00;;;;;;5156778;27;20178;-44
2023/09/03 00:49:27;;;;;;;6.17;5.10;;;17.80;1.00;;;;;;5154418;27;20178;-45
2023/09/03 00:51:53;;;;;;;5.00;4.50;;;17.70;1.00;;;;;;5156102;27;20868;-45
2023/09/03 00:54:23;;;;;;;5.23;4.80;;;17.80;1.00;;;;;;5137967;27;20536;-44
2023/09/03 00:56:55;;;;;;;6.13;4.70;;;17.80;1.00;;;;;;5132528;27;20432;-44
2023/09/03 00:59:22;;;;;;;5.60;5.03;;;17.80;1.00;;;;;;5135766;27;20424;-44
2023/09/03 01:01:51;;;;;;;4.87;4.37;;;17.70;1.00;;;;;;5137222;27;20524;-43
2023/09/03 01:04:18;;;;;;;6.10;5.50;;;17.70;1.00;;;;;;5136416;27;20485;-43
2023/09/03 01:06:45;;;;;;;5.73;5.23;;;17.70;1.00;;;;;;5136018;27;20428;-44
2023/09/03 01:09:11;;;;;;;4.83;4.43;;;17.70;1.00;;;;;;5135627;27;20515;-44
2023/09/03 01:11:46;;;;;;;5.47;4.97;;;17.70;1.00;;;;;;5135710;27;20480;-43
2023/09/03 01:14:36;;;;;;;6.53;5.30;;;17.70;1.00;;;;;;5135720;27;20489;-43
2023/09/03 01:17:10;;;;;;;5.40;4.60;;;17.70;1.00;;;;;;5136691;27;20544;-43
2023/09/03 01:19:47;;;;;;;5.30;4.80;;;17.60;1.00;;;;;;5119978;27;20706;-44
2023/09/03 01:22:28;;;;;;;5.90;5.30;;;17.60;1.00;;;;;;5138058;27;20543;-44
2023/09/03 01:25:19;;;;;;;4.87;4.10;;;17.50;1.00;;;;;;5137560;27;20443;-43
2023/09/03 01:28:22;;;;;;;6.10;5.40;;;17.50;1.00;;;;;;5137402;27;20425;-46
2023/09/03 01:30:49;;;;;;;4.83;4.37;;;17.50;1.00;;;;;;5137863;27;20521;-46
2023/09/03 01:33:16;;;;;;;6.47;4.30;;;17.50;1.00;;;;;;5117408;27;20484;-46
2023/09/03 01:35:43;;;;;;;5.10;4.60;;;17.40;1.00;;;;;;5115643;28;20747;-46
2023/09/03 01:38:09;;;;;;;4.63;4.07;;;17.60;1.00;;;;;;5116352;28;20801;-46
2023/09/03 01:40:35;;;;;;;6.23;5.20;;;17.40;3.40;;;;;;5117249;28;20430;-46
2023/09/03 01:43:00;;;;;;;4.80;4.30;;;17.40;4.80;;;;;;5116388;28;20462;-46
2023/09/03 01:45:38;;;;;;;6.00;5.40;;;17.30;14.20;;;;;;5115484;28;20187;-46
2023/09/03 01:48:14;;;;;;;5.20;4.70;;;17.30;17.00;;;;;;5113518;28;20270;-46
2023/09/03 01:50:49;;;;;;;5.63;4.80;;;17.40;12.30;;;;;;5113758;28;20665;-46
2023/09/03 01:53:29;;;;;;;5.73;4.73;;;17.40;1.00;;;;;;5114279;28;20734;-44
2023/09/03 01:55:57;;;;;;;5.30;4.23;;;17.40;1.00;;;;;;5112836;28;20543;-43
2023/09/03 01:58:25;;;;;;;5.27;4.77;;;17.30;1.00;;;;;;5115972;28;20409;-43
2023/09/03 02:00:52;;;;;;;5.10;4.60;;;17.50;4.90;;;;;;5115682;28;20531;-43
2023/09/03 02:03:17;;;;;;;4.40;4.00;;;17.30;25.10;;;;;;5116408;28;20662;-43
2023/09/03 02:05:43;;;;;;;5.07;4.60;;;17.40;34.40;;;;;;5116442;28;20433;-43
2023/09/03 02:08:09;;;;;;;4.60;4.20;;;17.40;41.10;;;;;;5114954;28;20310;-43
2023/09/03 02:10:34;;;;;;;5.20;4.70;;;17.40;39.40;;;;;;5114223;28;20179;-44
2023/09/03 02:16:22;;;;;;;5.60;4.77;;;17.40;21.40;;;;;;5114279;28;20187;-44
2023/09/03 02:18:47;;;;;;;6.87;5.10;;;17.40;9.90;;;;;;5114679;28;20428;-42
2023/09/03 02:21:13;;;;;;;5.03;4.47;;;17.40;6.40;;;;;;5114631;28;20202;-44
2023/09/03 02:23:39;;;;;;;5.37;4.83;;;17.30;13.00;;;;;;5114365;28;20325;-44
2023/09/03 02:26:04;;;;;;;5.53;4.87;;;17.30;4.80;;;;;;5114716;28;20210;-45
2023/09/03 02:28:30;;;;;;;5.27;4.70;;;17.20;15.50;;;;;;5114927;28;20264;-44
2023/09/03 02:30:56;;;;;;;5.63;4.93;;;17.20;49.30;;;;;;5115268;28;20230;-44
2023/09/03 02:33:22;;;;;;;5.07;4.40;;;17.20;51.50;;;;;;5114733;28;20172;-44
2023/09/03 02:35:48;;;;;;;5.20;4.57;;;17.20;37.80;;;;;;5121531;28;20283;-44
2023/09/03 02:38:14;;;;;;;5.03;4.53;;;17.20;20.50;;;;;;5136128;28;20435;-44
2023/09/03 02:40:39;;;;;;;6.23;4.90;;;17.20;20.30;;;;;;5134635;28;20717;-44
2023/09/03 02:43:05;;;;;;;5.40;4.87;;;17.20;13.80;;;;;;5134090;27;20306;-44
2023/09/03 02:45:31;;;;;;;5.57;4.93;;;17.30;7.80;;;;;;5139625;27;20179;-44
2023/09/03 02:47:57;;;;;;;5.30;4.50;;;17.20;6.60;;;;;;5138527;27;20460;-44
2023/09/03 02:50:22;;;;;;;6.77;4.63;;;17.20;1.00;;;;;;5137946;27;20175;-45
2023/09/03 02:52:51;;;;;;;7.47;4.60;;;17.10;1.50;;;;;;5139279;27;20857;-44
2023/09/03 02:55:17;;;;;;;5.13;4.63;;;17.20;1.00;;;;;;5138202;27;20255;-44
2023/09/03 02:57:42;;;;;;;6.03;4.40;;;17.20;1.00;;;;;;5139938;27;20432;-44
2023/09/03 03:00:08;;;;;;;8.23;5.20;;;17.10;1.00;;;;;;5139741;27;20534;-45
2023/09/03 03:02:34;;;;;;;6.20;5.10;;;17.20;1.00;;;;;;5140117;27;20186;-44
2023/09/03 03:05:00;;;;;;;7.17;4.87;;;17.20;1.00;;;;;;5138941;27;20856;-44
2023/09/03 03:07:26;;;;;;;5.60;4.97;;;17.10;1.00;;;;;;5138927;27;20442;-44
2023/09/03 03:09:52;;;;;;;6.57;4.17;;;17.10;1.00;;;;;;5139323;27;20191;-44
2023/09/03 03:12:20;;;;;;;6.23;4.83;;;17.10;1.00;;;;;;5139413;27;20475;-44
2023/09/03 03:14:47;;;;;;;5.33;4.50;;;17.10;1.00;;;;;;5140512;27;20875;-44
2023/09/03 03:17:13;;;;;;;5.83;5.23;;;17.00;1.00;;;;;;5138329;27;20492;-44
2023/09/03 03:19:39;;;;;;;5.33;4.83;;;17.00;1.00;;;;;;5139752;27;20436;-44
2023/09/03 03:22:04;;;;;;;5.10;4.20;;;17.00;1.00;;;;;;5140025;27;20202;-44
2023/09/03 03:24:30;;;;;;;4.63;4.13;;;17.00;1.00;;;;;;5140621;27;20261;-44
2023/09/03 03:26:56;;;;;;;6.63;4.43;;;16.90;1.00;;;;;;5140893;27;20206;-45
2023/09/03 03:29:21;;;;;;;4.73;4.33;;;16.90;3.50;;;;;;5139656;27;20179;-44
2023/09/03 03:31:47;;;;;;;5.70;4.63;;;16.90;7.30;;;;;;5138552;27;20226;-45
2023/09/03 03:34:13;;;;;;;5.60;4.57;;;16.90;1.00;;;;;;5138587;27;20667;-44
2023/09/03 03:36:38;;;;;;;5.93;5.03;;;16.90;1.00;;;;;;5139260;27;20570;-44
2023/09/03 03:39:04;;;;;;;5.20;4.70;;;16.90;14.30;;;;;;5139199;27;20210;-44
2023/09/03 03:41:30;;;;;;;5.83;4.83;;;16.90;22.30;;;;;;5139430;27;20183;-44
2023/09/03 03:43:56;;;;;;;4.77;4.37;;;16.90;15.50;;;;;;5139346;27;20459;-44
2023/09/03 03:46:21;;;;;;;4.27;3.87;;;16.90;2.60;;;;;;5138921;27;20183;-44
2023/09/03 03:48:48;;;;;;;5.03;4.53;;;16.80;9.80;;;;;;5139775;27;20198;-44
2023/09/03 03:51:14;;;;;;;4.33;3.80;;;16.80;28.10;;;;;;5140712;27;20215;-44
2023/09/03 03:53:41;;;;;;;5.40;3.93;;;16.80;43.20;;;;;;5139667;27;20736;-44
2023/09/03 03:56:09;;;;;;;5.23;4.70;;;16.80;67.70;;;;;;5137497;27;20527;-44
2023/09/03 03:58:36;;;;;;;5.50;5.00;;;16.80;51.80;;;;;;5137901;27;20530;-44
2023/09/03 04:01:15;;;;;;;4.90;4.30;;;16.80;26.30;;;;;;5139166;27;20869;-45
2023/09/03 04:03:41;;;;;;;5.00;4.30;;;16.80;33.40;;;;;;5138514;27;20420;-45
2023/09/03 04:06:07;;;;;;;4.73;4.10;;;16.80;38.90;;;;;;5139431;27;20416;-43
2023/09/03 04:08:34;;;;;;;5.47;4.50;;;16.80;34.70;;;;;;5138499;27;20416;-44
2023/09/03 04:11:02;;;;;;;4.43;4.03;;;16.80;28.50;;;;;;5137772;27;20475;-44
2023/09/03 04:13:28;;;;;;;4.50;4.10;;;16.80;13.60;;;;;;5139281;27;20517;-44
2023/09/03 04:15:54;;;;;;;4.53;4.13;;;16.70;7.80;;;;;;5137113;27;20838;-44
2023/09/03 04:18:20;;;;;;;5.23;4.20;;;16.80;2.00;;;;;;5140371;27;20427;-45
2023/09/03 04:20:46;;;;;;;5.10;4.50;;;16.80;9.70;;;;;;5139596;27;20699;-44
2023/09/03 04:23:12;;;;;;;6.40;5.37;;;16.70;16.00;;;;;;5138879;27;20437;-45
2023/09/03 04:25:38;;;;;;;5.60;4.47;;;16.80;15.60;;;;;;5138318;27;20438;-44
2023/09/03 04:28:04;;;;;;;4.80;4.30;;;16.80;22.80;;;;;;5137724;27;20221;-45
2023/09/03 04:30:30;;;;;;;8.93;6.03;;;16.80;38.40;;;;;;5138530;27;20523;-45
2023/09/03 04:32:56;;;;;;;4.87;4.47;;;16.80;25.40;;;;;;5136810;27;20644;-45
2023/09/03 04:35:21;;;;;;;5.13;4.40;;;16.70;29.50;;;;;;5137691;27;20464;-45
2023/09/03 04:37:48;;;;;;;4.73;4.23;;;16.80;6.60;;;;;;5138026;27;20267;-44
2023/09/03 04:40:15;;;;;;;4.80;3.90;;;16.80;1.00;;;;;;5138708;27;20194;-44
2023/09/03 04:42:41;;;;;;;4.50;4.10;;;16.80;1.00;;;;;;5138208;27;20433;-45
2023/09/03 04:45:07;;;;;;;6.80;5.00;;;16.80;1.00;;;;;;5136956;27;20419;-45
2023/09/03 04:47:32;;;;;;;4.50;3.83;;;16.80;1.00;;;;;;5137128;27;20558;-45
2023/09/03 04:49:58;;;;;;;4.30;3.90;;;16.70;1.00;;;;;;5136758;27;20416;-45
2023/09/03 04:52:24;;;;;;;5.00;4.07;;;16.70;1.00;;;;;;5137618;27;20223;-45
2023/09/03 04:54:49;;;;;;;4.50;4.10;;;16.70;1.00;;;;;;5138479;27;20191;-44
2023/09/03 04:57:15;;;;;;;5.00;4.60;;;16.70;1.00;;;;;;5138149;27;20564;-48
2023/09/03 04:59:40;;;;;;;4.67;3.83;;;16.70;1.00;;;;;;5139137;27;20600;-45
2023/09/03 05:02:06;;;;;;;6.50;4.67;;;16.70;1.00;;;;;;5138212;27;20565;-44
2023/09/03 05:04:33;;;;;;;4.13;3.83;;;16.70;9.60;;;;;;5139169;27;20468;-45
2023/09/03 05:06:59;;;;;;;5.33;4.60;;;16.70;1.00;;;;;;5139188;27;20604;-45
2023/09/03 05:09:24;;;;;;;4.33;3.83;;;16.70;1.00;;;;;;5137648;27;20532;-44
2023/09/03 05:11:50;;;;;;;4.63;4.23;;;16.70;1.00;;;;;;5138436;27;20208;-45
2023/09/03 05:14:16;;;;;;;5.10;4.60;;;16.70;1.00;;;;;;5139109;27;20463;-45
2023/09/03 05:16:42;;;;;;;5.40;4.90;;;16.70;20.00;;;;;;5137697;27;20538;-44
2023/09/03 05:19:07;;;;;;;4.27;3.87;;;16.70;37.70;;;;;;5137777;27;20185;-44
2023/09/03 05:21:33;;;;;;;6.07;4.13;;;16.80;8.80;;;;;;5136895;27;20195;-44
2023/09/03 05:23:59;;;;;;;5.70;4.50;;;16.90;1.00;;;;;;5136682;27;20248;-44
2023/09/03 05:26:25;;;;;;;5.27;4.77;;;16.90;1.00;;;;;;5136739;27;20179;-45
2023/09/03 05:28:51;;;;;;;6.33;4.17;;;17.00;1.00;;;;;;5136945;27;20496;-43
2023/09/03 05:31:16;;;;;;;5.87;5.23;;;17.10;1.00;;;;;;5135444;27;20221;-44
2023/09/03 05:33:42;;;;;;;4.80;4.13;;;17.20;1.00;;;;;;5136563;27;20182;-44
2023/09/03 05:36:08;;;;;;;4.80;4.30;;;17.20;1.00;;;;;;5135534;27;20226;-45
2023/09/03 05:38:33;;;;;;;4.83;4.30;;;17.30;1.00;;;;;;5135565;27;20179;-44
2023/09/03 05:40:59;;;;;;;6.40;4.23;;;17.40;1.00;;;;;;5134516;27;20183;-44
2023/09/03 05:43:28;;;;;;;4.97;4.10;;;17.50;1.00;;;;;;5133508;27;20469;-44
2023/09/03 05:45:54;;;;;;;5.03;4.50;;;17.60;1.00;;;;;;5134374;27;20421;-44
2023/09/03 05:48:19;;;;;;;3.93;3.57;;;17.60;1.00;;;;;;5133322;27;20436;-44
2023/09/03 05:50:45;;;;;;;5.00;4.50;;;17.60;1.00;;;;;;5134388;27;20462;-44
2023/09/03 05:53:11;;;;;;;4.93;4.43;;;17.60;1.00;;;;;;5135096;27;20286;-44
2023/09/03 05:55:39;;;;;;;5.13;4.60;;;17.60;1.00;;;;;;5134576;27;20175;-43
2023/09/03 05:58:05;;;;;;;5.57;4.10;;;17.60;1.00;;;;;;5136274;27;20183;-44
2023/09/03 06:00:31;;;;;;;4.23;3.73;;;17.70;1.00;;;;;;5134927;27;20421;-44
2023/09/03 06:02:57;;;;;;;4.63;4.23;;;17.80;1.00;;;;;;5135106;27;20405;-45
2023/09/03 06:05:27;;;;;;;4.70;4.30;;;17.80;1.00;;;;;;5135437;27;20458;-44
2023/09/03 06:07:52;;;;;;;4.50;4.10;;;17.90;1.00;;;;;;5118776;27;20218;-45
2023/09/03 06:10:18;;;;;;;4.30;3.90;;;18.00;1.00;;;;;;5137093;27;20461;-45
2023/09/03 06:12:44;;;;;;;5.23;4.73;;;18.10;99.90;;;;;;5136985;27;20245;-44
2023/09/03 06:15:10;;;;;;;6.80;5.40;;;18.30;99.90;;;;;;5136952;27;20556;-45
2023/09/03 06:17:35;;;;;;;5.33;4.80;;;18.40;99.90;;;;;;5136239;27;20453;-44
2023/09/03 06:20:02;;;;;;;5.47;4.97;;;18.50;99.90;;;;;;5118472;27;20194;-45
2023/09/03 06:22:28;;;;;;;6.23;4.23;;;18.70;99.90;;;;;;5137740;27;20277;-45
2023/09/03 06:24:53;;;;;;;4.93;4.40;;;18.80;35.00;;;;;;5135995;27;20519;-45
2023/09/03 06:27:19;;;;;;;4.50;4.10;;;18.90;1.00;;;;;;5136575;28;20190;-45
2023/09/03 06:29:45;;;;;;;4.47;4.07;;;19.00;1.00;;;;;;5135987;28;20605;-44
2023/09/03 06:32:10;;;;;;;4.67;4.10;;;19.20;1.00;;;;;;5136722;28;20608;-45
2023/09/03 06:34:36;;;;;;;7.87;4.70;;;19.40;1.00;;;;;;5136980;28;20193;-45
2023/09/03 06:37:02;;;;;;;4.33;3.93;;;19.60;99.90;;;;;;5137016;28;20215;-44
2023/09/03 06:39:28;;;;;;;4.57;4.13;;;19.70;99.90;;;;;;5136427;28;20179;-44
2023/09/03 06:41:54;;;;;;;4.70;4.30;;;19.90;99.90;;;;;;5136135;28;20260;-45
2023/09/03 06:44:21;;;;;;;4.77;4.37;;;20.10;91.30;;;;;;5119086;28;20408;-45
2023/09/03 06:46:47;;;;;;;4.57;4.17;;;20.20;1.00;;;;;;5137217;28;20483;-44
2023/09/03 06:49:12;;;;;;;4.13;3.73;;;20.30;1.00;;;;;;5136663;28;20420;-45
2023/09/03 06:51:38;;;;;;;5.00;4.50;;;20.40;99.90;;;;;;5134715;28;20600;-45
2023/09/03 06:54:04;;;;;;;4.40;3.93;;;20.50;99.90;;;;;;5135339;28;20454;-44
2023/09/03 06:56:29;;;;;;;7.17;4.50;;;20.50;1.00;;;;;;5135628;28;20310;-45
2023/09/03 06:58:55;;;;;;;5.10;4.00;;;20.60;1.00;;;;;;5137281;28;20179;-45
2023/09/03 07:01:21;;;;;;;7.30;4.83;;;20.50;1.00;;;;;;5136892;28;20187;-44
2023/09/03 07:03:46;;;;;;;8.30;4.40;;;20.30;99.90;;;;;;5137405;28;20629;-45
2023/09/03 07:06:12;;;;;;;4.87;4.37;;;20.40;99.90;;;;;;5137337;28;20282;-44
2023/09/03 07:08:38;;;;;;;4.13;3.73;;;20.60;99.90;;;;;;5117027;28;20181;-45
2023/09/03 07:11:03;;;;;;;6.10;4.63;;;20.90;5.60;;;;;;5135528;28;20221;-44
2023/09/03 07:13:29;;;;;;;4.97;4.10;;;21.10;1.00;;;;;;5135085;28;20190;-45
2023/09/03 07:15:55;;;;;;;5.00;3.83;;;21.30;99.90;;;;;;5134320;28;20653;-45
2023/09/03 07:18:20;;;;;;;4.80;4.40;;;21.50;86.10;;;;;;5135044;28;20215;-45
2023/09/03 07:20:46;;;;;;;4.40;4.00;;;21.70;99.90;;;;;;5114700;28;20179;-45
2023/09/03 07:23:11;;;;;;;4.80;4.23;;;21.80;53.00;;;;;;5132606;28;20190;-45
2023/09/03 07:25:37;;;;;;;4.70;4.20;;;22.00;99.90;;;;;;5134415;28;20190;-44
2023/09/03 07:28:03;;;;;;;4.00;3.70;;;21.90;99.90;;;;;;5116905;28;20183;-44
2023/09/03 07:30:29;;;;;;;4.70;4.30;;;22.00;99.90;;;;;;5136913;27;20210;-44
2023/09/03 07:32:56;;;;;;;4.77;4.37;;;22.20;99.90;;;;;;5119336;27;20464;-45
2023/09/03 07:35:22;;;;;;;4.90;4.50;;;22.30;1.00;;;;;;5119593;27;20547;-45
2023/09/03 07:37:47;;;;;;;4.93;4.53;;;22.40;99.90;;;;;;5119550;27;20507;-44
2023/09/03 07:40:13;;;;;;;4.63;4.07;;;22.40;1.00;;;;;;5136612;27;20448;-44
2023/09/03 07:42:39;;;;;;;5.13;4.27;;;22.30;99.90;;;;;;5136943;27;20557;-44
2023/09/03 07:45:05;;;;;;;5.00;4.60;;;22.30;99.90;;;;;;5137309;27;20190;-45
2023/09/03 07:47:31;;;;;;;4.73;3.83;;;22.30;1.00;;;;;;5136023;27;20283;-44
2023/09/03 07:49:56;;;;;;;5.03;4.57;;;22.40;1.00;;;;;;5134182;27;20440;-43
2023/09/03 07:52:22;;;;;;;4.70;3.63;;;22.60;99.90;;;;;;5117510;27;20492;-44
2023/09/03 07:54:48;;;;;;;7.03;3.60;;;22.90;99.90;;;;;;5150498;27;20210;-42
2023/09/03 07:57:13;;;;;;;4.53;3.20;;;23.20;99.90;;;;;;5157753;27;20178;-44
2023/09/03 07:59:39;;;;;;;4.43;4.03;;;23.50;1.00;;;;;;5140713;27;20292;-44
2023/09/03 08:02:05;;;;;;;3.93;3.60;;;23.80;99.90;;;;;;5141213;27;20214;-44
2023/09/03 08:04:31;;;;;;;5.33;4.07;;;24.00;99.90;;;;;;5158509;27;20241;-44
2023/09/03 08:06:56;;;;;;;4.37;3.60;;;24.20;99.90;;;;;;5140496;27;20271;-44
2023/09/03 08:09:24;;;;;;;4.80;3.43;;;24.50;6.60;;;;;;5157188;27;20270;-44
2023/09/03 08:11:51;;;;;;;4.73;3.87;;;25.00;1.00;;;;;;5157240;27;20228;-43
2023/09/03 08:14:16;;;;;;;3.33;3.03;;;25.40;1.00;;;;;;5157172;27;20825;-44
2023/09/03 08:16:42;;;;;;;5.30;4.00;;;25.80;1.00;;;;;;5157469;27;20416;-43
2023/09/03 08:19:08;;;;;;;4.43;3.30;;;26.20;1.00;;;;;;5159015;27;20250;-44
2023/09/03 08:21:33;;;;;;;4.03;3.70;;;26.50;99.90;;;;;;5159034;27;20182;-44
2023/09/03 08:23:59;;;;;;;4.47;3.90;;;26.90;99.90;;;;;;5159713;27;20263;-43
2023/09/03 08:26:25;;;;;;;4.10;3.77;;;27.50;99.90;;;;;;5141503;27;20213;-44
2023/09/03 08:28:50;;;;;;;3.90;3.60;;;28.20;99.90;;;;;;5159607;27;20178;-44
2023/09/03 08:31:16;;;;;;;3.87;3.10;;;28.50;99.90;;;;;;5158954;27;20214;-44
2023/09/03 08:33:42;;;;;;;3.83;3.50;;;28.70;37.20;;;;;;5159455;27;20175;-44
2023/09/03 08:36:07;;;;;;;3.73;3.30;;;28.40;18.60;;;;;;5159931;27;20222;-44
2023/09/03 08:38:33;;;;;;;3.73;3.43;;;28.70;12.70;;;;;;5159511;27;20174;-44
2023/09/03 08:40:59;;;;;;;4.00;3.20;;;29.00;11.90;;;;;;5158025;27;20179;-43
2023/09/03 08:43:26;;;;;;;4.17;3.77;;;29.60;1.00;;;;;;5159624;27;20225;-44
2023/09/03 08:45:56;;;;;;;3.80;3.30;;;30.10;1.00;;;;;;5139834;27;20185;-44
2023/09/03 08:48:22;;;;;;;3.00;2.70;;;30.90;1.00;;;;;;5158619;27;20457;-44
2023/09/03 08:50:48;;;;;;;4.77;3.43;;;31.40;1.00;;;;;;5136634;27;20450;-44
2023/09/03 08:53:14;;;;;;;3.67;3.37;;;32.00;1.00;;;;;;5154613;27;20829;-43
2023/09/03 08:55:41;;;;;;;3.60;3.30;;;32.70;1.00;;;;;;5137459;27;20193;-43
2023/09/03 08:58:07;;;;;;;3.20;2.90;;;33.20;13.80;;;;;;5154282;27;20462;-44
2023/09/03 09:00:33;;;;;;;4.23;3.80;;;33.30;41.60;;;;;;5155152;27;20454;-44
2023/09/03 09:03:06;;;;;;;3.73;3.40;;;33.70;38.50;;;;;;5155118;27;20198;-44
2023/09/03 09:05:32;;;;;;;3.90;3.60;;;33.20;22.50;;;;;;5155880;27;20725;-43
2023/09/03 09:08:00;;;;;;;3.87;3.53;;;32.40;17.00;;;;;;5156284;27;20647;-43
2023/09/03 09:10:31;;;;;;;4.00;3.70;;;32.10;2.80;;;;;;5156429;27;20402;-43
2023/09/03 09:13:00;;;;;;;3.90;3.50;;;32.00;2.50;;;;;;5138437;27;20749;-43
2023/09/03 09:15:26;;;;;;;3.50;3.30;;;31.90;1.00;;;;;;5155926;27;20818;-44
2023/09/03 09:17:52;;;;;;;3.73;3.43;;;32.20;1.00;;;;;;5155314;27;20389;-46
2023/09/03 09:20:20;;;;;;;3.63;2.53;;;32.60;8.40;;;;;;5136741;27;20178;-50
2023/09/03 09:22:48;;;;;;;3.30;2.83;;;32.90;3.70;;;;;;5156863;27;20239;-44
2023/09/03 09:25:25;;;;;;;2.67;2.20;;;33.30;7.10;;;;;;5157503;27;20554;-45
2023/09/03 09:27:55;;;;;;;3.23;2.30;;;33.50;93.70;;;;;;5137690;27;20671;-44
2023/09/03 09:30:22;;;;;;;3.00;2.70;;;33.80;67.40;;;;;;5155823;27;20435;-44
2023/09/03 09:32:48;;;;;;;2.93;2.67;;;33.70;64.30;;;;;;5156474;27;20433;-44
2023/09/03 09:35:24;;;;;;;3.30;2.30;;;33.90;1.00;;;;;;5155244;27;20692;-44
2023/09/03 09:37:50;;;;;;;2.77;2.57;;;33.50;1.00;;;;;;5155815;27;20734;-44
2023/09/03 09:40:26;;;;;;;2.13;1.93;;;32.80;1.00;;;;;;5157652;27;20680;-44
2023/09/03 09:42:55;;;;;;;2.53;2.33;;;32.10;1.00;;;;;;5139301;27;20194;-44
2023/09/03 09:45:20;;;;;;;2.50;2.30;;;31.50;1.00;;;;;;5157193;27;20776;-46
2023/09/03 09:47:47;;;;;;;3.33;2.33;;;31.30;1.00;;;;;;5156600;27;20502;-46
2023/09/03 09:50:12;;;;;;;2.33;2.13;;;30.80;1.00;;;;;;5136641;27;20190;-47
2023/09/03 09:52:40;;;;;;;2.60;2.00;;;31.10;1.00;;;;;;5155463;27;20449;-46
2023/09/03 09:55:06;;;;;;;2.80;2.60;;;31.70;1.00;;;;;;5156764;27;20193;-47
2023/09/03 09:57:31;;;;;;;2.60;2.40;;;32.50;1.00;;;;;;5156859;27;20688;-45
2023/09/03 10:00:04;;;;;;;3.07;2.40;;;33.30;1.00;;;;;;5154885;27;20480;-45
2023/09/03 10:02:30;;;;;;;2.93;2.40;;;33.90;1.00;;;;;;5154959;27;20174;-45
2023/09/03 10:04:56;;;;;;;3.20;2.90;;;34.50;1.00;;;;;;5154547;27;20406;-45
2023/09/03 10:07:22;;;;;;;3.17;2.87;;;35.20;1.00;;;;;;5135342;27;20209;-45
2023/09/03 10:09:48;;;;;;;2.80;2.37;;;35.60;1.00;;;;;;5154255;27;20437;-45
2023/09/03 10:12:14;;;;;;;2.83;2.63;;;36.00;1.00;;;;;;5155364;27;20867;-45
2023/09/03 10:14:41;;;;;;;2.80;2.47;;;36.60;1.00;;;;;;5155308;27;20217;-45
2023/09/03 10:17:08;;;;;;;2.40;2.20;;;36.90;1.00;;;;;;5154418;27;20404;-45
2023/09/03 10:19:42;;;;;;;2.50;1.67;;;36.50;1.00;;;;;;5155436;27;20480;-45
2023/09/03 10:22:14;;;;;;;2.80;2.50;;;35.60;1.00;;;;;;5156755;27;20479;-46
2023/09/03 10:25:01;;;;;;;3.10;2.30;;;34.70;1.00;;;;;;5155010;27;20871;-46
2023/09/03 10:27:32;;;;;;;2.80;2.60;;;34.70;1.00;;;;;;5153894;27;21074;-45
2023/09/03 10:29:59;;;;;;;2.37;2.17;;;34.80;1.00;;;;;;5137495;27;20408;-45
2023/09/03 10:32:25;;;;;;;3.37;2.30;;;34.30;1.00;;;;;;5137738;27;20562;-46
2023/09/03 10:34:51;;;;;;;2.90;2.20;;;33.80;1.00;;;;;;5156384;27;20406;-45
2023/09/03 10:37:17;;;;;;;3.97;2.40;;;34.30;1.00;;;;;;5133911;28;20451;-46
2023/09/03 10:39:46;;;;;;;2.40;2.20;;;35.10;1.00;;;;;;5133750;27;20222;-46
2023/09/03 10:42:15;;;;;;;5.90;2.50;;;35.80;1.00;;;;;;5130876;28;20293;-46
2023/09/03 10:44:51;;;;;;;2.33;1.90;;;36.70;1.00;;;;;;5131891;27;20431;-45
2023/09/03 10:47:18;;;;;;;2.37;2.17;;;38.00;1.00;;;;;;5133418;27;20407;-43
2023/09/03 10:49:44;;;;;;;2.90;2.60;;;39.20;1.00;;;;;;5133919;27;20432;-45
2023/09/03 10:52:30;;;;;;;2.47;2.27;;;40.00;31.90;;;;;;5133194;27;20813;-47
2023/09/03 10:55:18;;;;;;;2.97;2.63;;;40.70;99.90;;;;;;5135299;27;20417;-47
2023/09/03 10:58:04;;;;;;;2.13;1.60;;;40.80;44.40;;;;;;5133793;27;20675;-45
2023/09/03 11:00:29;;;;;;;2.73;2.23;;;41.00;52.50;;;;;;5133804;28;20412;-47
2023/09/03 11:03:15;;;;;;;2.10;1.80;;;41.50;1.00;;;;;;5132003;28;20507;-47
2023/09/03 11:05:40;;;;;;;2.27;2.07;;;41.00;1.00;;;;;;5136976;27;20198;-47
2023/09/03 11:08:34;;;;;;;2.73;1.60;;;41.40;1.00;;;;;;5136826;27;20432;-47
2023/09/03 11:11:00;;;;;;;2.70;2.20;;;40.40;1.00;;;;;;5137350;27;20262;-45
2023/09/03 11:13:27;;;;;;;2.57;2.37;;;39.30;1.00;;;;;;5137347;27;20437;-45
2023/09/03 11:15:55;;;;;;;2.77;1.90;;;39.20;1.00;;;;;;5136468;27;20722;-45
2023/09/03 11:18:22;;;;;;;2.40;2.20;;;39.00;1.00;;;;;;5136603;27;20428;-45
2023/09/03 11:20:51;;;;;;;2.40;2.20;;;38.80;1.00;;;;;;5136949;27;20417;-44
2023/09/03 11:23:17;;;;;;;2.20;2.00;;;39.10;1.00;;;;;;5136815;27;20428;-44
2023/09/03 11:25:43;;;;;;;2.40;2.20;;;39.40;1.00;;;;;;5136420;27;20516;-45
2023/09/03 11:28:13;;;;;;;2.60;2.40;;;40.10;1.00;;;;;;5136484;27;20497;-44
2023/09/03 11:30:40;;;;;;;2.40;2.20;;;40.60;1.00;;;;;;5136281;27;20432;-45
2023/09/03 11:33:08;;;;;;;2.10;1.93;;;40.70;1.00;;;;;;5134985;27;20417;-45
2023/09/03 11:35:44;;;;;;;3.30;1.93;;;41.20;1.00;;;;;;5137186;27;20562;-46
2023/09/03 11:38:11;;;;;;;2.03;1.80;;;41.10;1.00;;;;;;5137954;27;20778;-47
2023/09/03 11:40:38;;;;;;;2.00;1.80;;;40.80;1.00;;;;;;5138077;27;20464;-47
2023/09/03 11:43:08;;;;;;;2.40;2.13;;;41.00;1.00;;;;;;5139747;27;20850;-47
2023/09/03 11:45:34;;;;;;;2.43;2.00;;;39.80;1.00;;;;;;5138390;27;20428;-47
2023/09/03 11:47:59;;;;;;;2.10;2.00;;;39.70;1.00;;;;;;5137765;27;20511;-47
2023/09/03 11:50:25;;;;;;;2.57;2.37;;;39.70;1.00;;;;;;5138502;27;20183;-47
2023/09/03 11:53:04;;;;;;;2.20;2.00;;;39.80;1.00;;;;;;5137591;27;20637;-46
2023/09/03 11:55:41;;;;;;;2.40;2.20;;;39.70;1.00;;;;;;5137718;27;20244;-47
2023/09/03 11:58:11;;;;;;;2.50;2.30;;;39.80;1.00;;;;;;5136896;27;20424;-47
2023/09/03 12:00:37;;;;;;;2.73;2.40;;;40.00;1.00;;;;;;5135560;27;20448;-47
2023/09/03 12:03:03;;;;;;;3.20;2.50;;;40.40;1.00;;;;;;5136046;27;20532;-44
2023/09/03 12:05:29;;;;;;;2.20;2.00;;;40.70;1.00;;;;;;5136403;27;20408;-44
2023/09/03 12:08:02;;;;;;;2.40;2.20;;;40.20;1.00;;;;;;5137647;27;20493;-47
2023/09/03 12:10:29;;;;;;;2.37;1.90;;;39.30;1.00;;;;;;5137781;27;20424;-45
2023/09/03 12:12:54;;;;;;;2.33;2.13;;;39.40;1.00;;;;;;5136315;27;20420;-46
2023/09/03 12:15:21;;;;;;;2.10;1.90;;;39.90;1.00;;;;;;5135990;27;20795;-45
2023/09/03 12:17:47;;;;;;;3.87;3.57;;;39.90;1.00;;;;;;5135211;27;20244;-46
2023/09/03 12:20:31;;;;;;;4.40;4.10;;;39.10;1.00;;;;;;5136592;27;20432;-45
2023/09/03 12:23:15;;;;;;;2.50;2.30;;;38.10;1.00;;;;;;5137028;27;20525;-45
2023/09/03 12:25:42;;;;;;;2.10;1.90;;;37.30;1.00;;;;;;5136898;27;20906;-46
2023/09/03 12:28:09;;;;;;;3.37;2.33;;;37.50;1.00;;;;;;5137493;27;20425;-46
2023/09/03 12:30:57;;;;;;;2.70;2.50;;;38.10;1.00;;;;;;5138253;27;20488;-46
2023/09/03 12:33:27;;;;;;;2.03;1.80;;;38.40;1.00;;;;;;5138143;27;20728;-45
2023/09/03 12:36:07;;;;;;;3.03;2.53;;;38.70;1.00;;;;;;5136232;27;20465;-46
2023/09/03 12:38:47;;;;;;;3.17;2.27;;;38.50;1.00;;;;;;5136595;27;20391;-46
2023/09/03 12:41:13;;;;;;;3.80;2.57;;;37.80;1.00;;;;;;5137240;27;20468;-46
2023/09/03 12:43:40;;;;;;;2.67;2.47;;;37.10;16.90;;;;;;5138222;27;20425;-46
2023/09/03 12:46:06;;;;;;;2.70;2.50;;;36.90;23.50;;;;;;5135763;27;20175;-46
2023/09/03 12:48:32;;;;;;;2.20;2.00;;;37.40;10.00;;;;;;5135200;27;20433;-46
2023/09/03 12:50:57;;;;;;;3.73;2.37;;;38.20;3.60;;;;;;5136649;27;20175;-45
2023/09/03 12:53:24;;;;;;;2.40;2.10;;;39.30;15.20;;;;;;5135798;27;20260;-47
2023/09/03 12:55:50;;;;;;;1.90;1.80;;;39.90;17.50;;;;;;5136857;27;20171;-46
2023/09/03 12:58:16;;;;;;;3.73;2.53;;;40.30;10.90;;;;;;5137193;27;20500;-46